TAPA Airport Information

Runway Information
Runway 07 Length 9003 ft width 148 ft
Elevation 58 ft Threshold 656 ft Heading 58
Runway 25 Length 9003 ft Width 148 ft
Elevation 17 ft Threshold 0 ft Heading 238
Airport Frequencies
Type APP Name APP Frequency 119.1 MHZ
Type ATIS Name ATIS Frequency 114.5 MHZ
Type GND Name GND Frequency 121.9 MHZ
Type RDO Name ANTIQUA RD Frequency 26.48 MHZ
Type TWR Name TWR Frequency 118.2 MHZ
Airport Navaids
Type VOR-DME Name V C Bird Frequency 114500 KHZ
Type NDB Name V C Bird Frequency 351 KHZ
Type NDB Name V C Bird Frequency 369 KHZ
Airport Weather Information & NOTAM
ADDS - METARS form results

(1130 UTC 17 July 2018)
 
METAR text: TAPA 171100Z 10012KT 9999 SCT018 27/23 Q1018 NOSIG
Conditions at: TAPA (COOLIDGE/ANTIGUA, AG) observed 1100 UTC 17 July 2018
Temperature: 27.0°C (81°F)
Dewpoint: 23.0°C (73°F) [RH = 79%]
Pressure (altimeter): 30.06 inches Hg (1018.0 mb)
Winds: from the E (100 degrees) at 14 MPH (12 knots; 6.2 m/s)
Visibility: 6 or more miles (10+ km)
Ceiling: at least 12,000 feet AGL
Clouds: scattered clouds at 1800 feet AGL
Weather: no significant weather observed at this time